sensor_id;sensor_type;location;lat;lon;timestamp;pressure;altitude;pressure_sealevel;temperature;humidity
74975;BME280;64061;50.836;19.138;2022-12-29T00:02:18;98478.50;;;19.59;62.75
74975;BME280;64061;50.836;19.138;2022-12-29T00:05:21;98484.81;;;19.60;62.61
74975;BME280;64061;50.836;19.138;2022-12-29T00:08:26;98479.59;;;19.58;62.75
74975;BME280;64061;50.836;19.138;2022-12-29T00:11:43;98482.06;;;19.60;62.24
74975;BME280;64061;50.836;19.138;2022-12-29T00:14:47;98469.78;;;19.57;62.68
74975;BME280;64061;50.836;19.138;2022-12-29T00:18:19;98462.16;;;19.54;62.66
74975;BME280;64061;50.836;19.138;2022-12-29T00:21:23;98473.63;;;19.56;62.51
74975;BME280;64061;50.836;19.138;2022-12-29T00:24:45;98463.25;;;19.53;62.30
74975;BME280;64061;50.836;19.138;2022-12-29T00:28:10;98464.59;;;19.55;62.19
74975;BME280;64061;50.836;19.138;2022-12-29T00:31:31;98462.19;;;19.49;62.92
74975;BME280;64061;50.836;19.138;2022-12-29T00:34:52;98455.03;;;19.48;62.04
74975;BME280;64061;50.836;19.138;2022-12-29T00:38:12;98437.81;;;19.47;61.82
74975;BME280;64061;50.836;19.138;2022-12-29T00:41:34;98443.06;;;19.44;62.24
74975;BME280;64061;50.836;19.138;2022-12-29T00:44:56;98423.59;;;19.45;61.63
74975;BME280;64061;50.836;19.138;2022-12-29T00:48:00;98449.31;;;19.44;61.46
74975;BME280;64061;50.836;19.138;2022-12-29T00:51:04;98431.53;;;19.47;64.05
74975;BME280;64061;50.836;19.138;2022-12-29T00:54:06;98436.47;;;19.50;65.34
74975;BME280;64061;50.836;19.138;2022-12-29T00:57:10;98408.81;;;19.51;66.19
74975;BME280;64061;50.836;19.138;2022-12-29T01:00:16;98431.25;;;19.53;66.20
74975;BME280;64061;50.836;19.138;2022-12-29T01:03:20;98432.63;;;19.51;66.46
74975;BME280;64061;50.836;19.138;2022-12-29T01:06:23;98430.16;;;19.49;66.30
74975;BME280;64061;50.836;19.138;2022-12-29T01:09:27;98431.00;;;19.50;66.44
74975;BME280;64061;50.836;19.138;2022-12-29T01:16:44;98421.19;;;19.44;67.04
74975;BME280;64061;50.836;19.138;2022-12-29T01:19:50;98414.56;;;19.45;67.05
74975;BME280;64061;50.836;19.138;2022-12-29T01:22:54;98399.28;;;19.44;66.52
74975;BME280;64061;50.836;19.138;2022-12-29T01:26:08;98411.28;;;19.53;66.60
74975;BME280;64061;50.836;19.138;2022-12-29T01:29:12;98412.44;;;19.42;66.90
74975;BME280;64061;50.836;19.138;2022-12-29T01:32:17;98406.38;;;19.45;66.55
74975;BME280;64061;50.836;19.138;2022-12-29T01:35:21;98396.84;;;19.42;66.10
74975;BME280;64061;50.836;19.138;2022-12-29T01:38:25;98398.75;;;19.42;66.48
74975;BME280;64061;50.836;19.138;2022-12-29T01:41:28;98416.00;;;19.42;66.38
74975;BME280;64061;50.836;19.138;2022-12-29T01:44:47;98406.09;;;19.51;65.88
74975;BME280;64061;50.836;19.138;2022-12-29T01:47:57;98396.03;;;19.42;65.81
74975;BME280;64061;50.836;19.138;2022-12-29T01:51:04;98400.44;;;19.38;66.09
74975;BME280;64061;50.836;19.138;2022-12-29T01:54:12;98385.66;;;19.39;65.75
74975;BME280;64061;50.836;19.138;2022-12-29T01:57:23;98390.31;;;19.38;65.88
74975;BME280;64061;50.836;19.138;2022-12-29T02:00:29;98383.19;;;19.37;65.50
74975;BME280;64061;50.836;19.138;2022-12-29T02:03:35;98398.50;;;19.38;65.47
74975;BME280;64061;50.836;19.138;2022-12-29T02:06:43;98389.50;;;19.38;65.31
74975;BME280;64061;50.836;19.138;2022-12-29T02:09:53;98374.47;;;19.35;65.46
74975;BME280;64061;50.836;19.138;2022-12-29T02:12:59;98374.75;;;19.34;65.50
74975;BME280;64061;50.836;19.138;2022-12-29T02:16:09;98384.03;;;19.38;65.39
74975;BME280;64061;50.836;19.138;2022-12-29T02:19:50;98377.41;;;19.44;64.88
74975;BME280;64061;50.836;19.138;2022-12-29T02:23:36;98374.75;;;19.34;64.77
74975;BME280;64061;50.836;19.138;2022-12-29T02:27:24;98378.00;;;19.36;64.45
74975;BME280;64061;50.836;19.138;2022-12-29T02:30:57;98368.72;;;19.37;64.32
74975;BME280;64061;50.836;19.138;2022-12-29T02:34:18;98362.19;;;19.33;64.33
74975;BME280;64061;50.836;19.138;2022-12-29T02:37:37;98349.03;;;19.35;64.28
74975;BME280;64061;50.836;19.138;2022-12-29T02:40:49;98346.88;;;19.32;64.57
74975;BME280;64061;50.836;19.138;2022-12-29T02:44:03;98343.03;;;19.33;64.09
74975;BME280;64061;50.836;19.138;2022-12-29T02:47:22;98336.47;;;19.34;63.86
74975;BME280;64061;50.836;19.138;2022-12-29T02:50:33;98331.06;;;19.29;64.19
74975;BME280;64061;50.836;19.138;2022-12-29T02:53:40;98337.63;;;19.28;64.17
74975;BME280;64061;50.836;19.138;2022-12-29T02:57:02;98337.09;;;19.26;64.78
74975;BME280;64061;50.836;19.138;2022-12-29T03:00:10;98321.22;;;19.28;63.85
74975;BME280;64061;50.836;19.138;2022-12-29T03:03:25;98332.09;;;19.33;63.85
74975;BME280;64061;50.836;19.138;2022-12-29T03:06:50;98326.13;;;19.31;63.84
74975;BME280;64061;50.836;19.138;2022-12-29T03:10:05;98319.59;;;19.27;63.62
74975;BME280;64061;50.836;19.138;2022-12-29T03:13:25;98314.66;;;19.29;63.36
74975;BME280;64061;50.836;19.138;2022-12-29T03:16:56;98303.47;;;19.25;63.66
74975;BME280;64061;50.836;19.138;2022-12-29T03:20:10;98318.47;;;19.28;63.32
74975;BME280;64061;50.836;19.138;2022-12-29T03:23:24;98319.06;;;19.25;63.25
74975;BME280;64061;50.836;19.138;2022-12-29T03:26:31;98322.59;;;19.25;63.33
74975;BME280;64061;50.836;19.138;2022-12-29T03:29:38;98321.22;;;19.28;63.32
74975;BME280;64061;50.836;19.138;2022-12-29T03:32:48;98319.59;;;19.27;63.31
74975;BME280;64061;50.836;19.138;2022-12-29T03:36:01;98313.00;;;19.28;62.86
74975;BME280;64061;50.836;19.138;2022-12-29T03:39:10;98287.06;;;19.25;62.58
74975;BME280;64061;50.836;19.138;2022-12-29T03:42:18;98313.31;;;19.26;61.77
74975;BME280;64061;50.836;19.138;2022-12-29T03:45:25;98324.81;;;19.23;62.02
74975;BME280;64061;50.836;19.138;2022-12-29T03:48:28;98311.94;;;19.23;61.69
74975;BME280;64061;50.836;19.138;2022-12-29T03:51:33;98287.88;;;19.26;61.64
74975;BME280;64061;50.836;19.138;2022-12-29T03:54:40;98305.94;;;19.21;61.58
74975;BME280;64061;50.836;19.138;2022-12-29T03:57:43;98305.94;;;19.21;61.51
74975;BME280;64061;50.836;19.138;2022-12-29T04:00:52;98306.75;;;19.22;61.15
74975;BME280;64061;50.836;19.138;2022-12-29T04:03:55;98313.06;;;19.22;61.60
74975;BME280;64061;50.836;19.138;2022-12-29T04:07:00;98313.59;;;19.25;61.91
74975;BME280;64061;50.836;19.138;2022-12-29T04:10:05;98302.13;;;19.22;61.96
74975;BME280;64061;50.836;19.138;2022-12-29T04:13:10;98282.16;;;19.22;61.49
74975;BME280;64061;50.836;19.138;2022-12-29T04:16:14;98290.06;;;19.23;61.57
74975;BME280;64061;50.836;19.138;2022-12-29T04:19:18;98282.16;;;19.22;61.84
74975;BME280;64061;50.836;19.138;2022-12-29T04:22:24;98280.78;;;19.25;61.68
74975;BME280;64061;50.836;19.138;2022-12-29T04:25:28;98261.09;;;19.22;62.10
74975;BME280;64061;50.836;19.138;2022-12-29T04:28:32;98272.84;;;19.23;61.65
74975;BME280;64061;50.836;19.138;2022-12-29T04:32:05;98275.34;;;19.19;61.89
74975;BME280;64061;50.836;19.138;2022-12-29T04:35:13;98277.50;;;19.22;61.73
74975;BME280;64061;50.836;19.138;2022-12-29T04:38:18;98278.03;;;19.25;62.13
74975;BME280;64061;50.836;19.138;2022-12-29T04:41:22;98274.78;;;19.22;61.53
74975;BME280;64061;50.836;19.138;2022-12-29T04:44:27;98284.59;;;19.23;62.30
74975;BME280;64061;50.836;19.138;2022-12-29T04:47:49;98275.88;;;19.21;62.18
74975;BME280;64061;50.836;19.138;2022-12-29T04:51:11;98252.38;;;19.20;62.14
74975;BME280;64061;50.836;19.138;2022-12-29T04:54:18;98279.94;;;19.24;62.29
74975;BME280;64061;50.836;19.138;2022-12-29T04:57:29;98277.50;;;19.22;62.41
74975;BME280;64061;50.836;19.138;2022-12-29T05:00:34;98276.69;;;19.22;61.87
74975;BME280;64061;50.836;19.138;2022-12-29T05:03:38;98273.94;;;19.22;61.74
74975;BME280;64061;50.836;19.138;2022-12-29T05:06:42;98275.88;;;19.21;61.89
74975;BME280;64061;50.836;19.138;2022-12-29T05:09:48;98270.41;;;19.21;61.13
74975;BME280;64061;50.836;19.138;2022-12-29T05:12:51;98267.94;;;19.20;60.59
74975;BME280;64061;50.836;19.138;2022-12-29T05:15:55;98270.16;;;19.18;60.95
74975;BME280;64061;50.836;19.138;2022-12-29T05:19:04;98265.47;;;19.23;61.04
74975;BME280;64061;50.836;19.138;2022-12-29T05:22:09;98252.94;;;19.17;60.94
74975;BME280;64061;50.836;19.138;2022-12-29T05:25:14;98253.75;;;19.18;60.74
74975;BME280;64061;50.836;19.138;2022-12-29T05:28:41;98263.66;;;19.14;60.99
74975;BME280;64061;50.836;19.138;2022-12-29T05:31:52;98237.13;;;19.14;61.13
74975;BME280;64061;50.836;19.138;2022-12-29T05:34:56;98235.22;;;19.15;61.06
74975;BME280;64061;50.836;19.138;2022-12-29T05:38:00;98249.69;;;19.15;61.20
74975;BME280;64061;50.836;19.138;2022-12-29T05:41:05;98240.41;;;19.16;61.20
74975;BME280;64061;50.836;19.138;2022-12-29T05:44:34;98246.44;;;19.13;61.24
74975;BME280;64061;50.836;19.138;2022-12-29T05:47:59;98237.69;;;19.11;61.31
74975;BME280;64061;50.836;19.138;2022-12-29T05:56:00;98251.19;;;19.03;61.19
74975;BME280;64061;50.836;19.138;2022-12-29T05:59:05;98228.97;;;19.09;60.65
74975;BME280;64061;50.836;19.138;2022-12-29T06:02:09;98255.22;;;19.10;60.31
74975;BME280;64061;50.836;19.138;2022-12-29T06:05:13;98261.78;;;19.09;60.06
74975;BME280;64061;50.836;19.138;2022-12-29T06:08:17;98242.63;;;19.09;60.25
74975;BME280;64061;50.836;19.138;2022-12-29T06:11:22;98250.84;;;19.09;60.03
74975;BME280;64061;50.836;19.138;2022-12-29T06:14:31;98262.59;;;19.10;59.80
74975;BME280;64061;50.836;19.138;2022-12-29T06:17:35;98261.25;;;19.07;60.37
74975;BME280;64061;50.836;19.138;2022-12-29T06:20:39;98256.31;;;19.09;60.29
74975;BME280;64061;50.836;19.138;2022-12-29T06:23:42;98256.31;;;19.09;60.01
74975;BME280;64061;50.836;19.138;2022-12-29T06:26:47;98241.53;;;19.10;60.40
74975;BME280;64061;50.836;19.138;2022-12-29T06:29:52;98240.97;;;19.13;60.96
74975;BME280;64061;50.836;19.138;2022-12-29T06:32:57;98230.03;;;19.13;61.49
74975;BME280;64061;50.836;19.138;2022-12-29T06:36:01;98217.72;;;19.16;61.67
74975;BME280;64061;50.836;19.138;2022-12-29T06:39:05;98220.44;;;19.16;61.45
74975;BME280;64061;50.836;19.138;2022-12-29T06:42:09;98224.81;;;19.17;61.59
74975;BME280;64061;50.836;19.138;2022-12-29T06:45:20;98198.72;;;19.25;61.31
74975;BME280;64061;50.836;19.138;2022-12-29T06:48:24;98209.91;;;19.28;60.82
74975;BME280;64061;50.836;19.138;2022-12-29T06:51:28;98216.13;;;19.34;60.80
74975;BME280;64061;50.836;19.138;2022-12-29T06:54:32;98207.06;;;19.38;61.16
74975;BME280;64061;50.836;19.138;2022-12-29T06:57:36;98204.56;;;19.42;60.20
74975;BME280;64061;50.836;19.138;2022-12-29T07:00:41;98212.69;;;19.47;60.22
74975;BME280;64061;50.836;19.138;2022-12-29T07:03:45;98193.25;;;19.48;59.81
74975;BME280;64061;50.836;19.138;2022-12-29T07:06:48;98217.31;;;19.51;59.88
74975;BME280;64061;50.836;19.138;2022-12-29T07:09:52;98232.34;;;19.54;59.60
74975;BME280;64061;50.836;19.138;2022-12-29T07:12:55;98230.13;;;19.56;59.61
74975;BME280;64061;50.836;19.138;2022-12-29T07:16:04;98244.25;;;19.63;59.33
74975;BME280;64061;50.836;19.138;2022-12-29T07:19:09;98242.91;;;19.61;59.44
74975;BME280;64061;50.836;19.138;2022-12-29T07:22:14;98249.72;;;19.63;59.28
74975;BME280;64061;50.836;19.138;2022-12-29T07:25:18;98237.38;;;19.66;58.98
74975;BME280;64061;50.836;19.138;2022-12-29T07:28:21;98249.16;;;19.66;59.00
74975;BME280;64061;50.836;19.138;2022-12-29T07:31:26;98252.94;;;19.70;58.94
74975;BME280;64061;50.836;19.138;2022-12-29T07:34:30;98255.69;;;19.70;58.58
74975;BME280;64061;50.836;19.138;2022-12-29T07:37:35;98254.53;;;19.71;58.91
74975;BME280;64061;50.836;19.138;2022-12-29T07:40:39;98253.44;;;19.72;58.40
74975;BME280;64061;50.836;19.138;2022-12-29T07:43:42;98263.28;;;19.73;58.12
74975;BME280;64061;50.836;19.138;2022-12-29T07:47:09;98251.22;;;19.74;58.72
74975;BME280;64061;50.836;19.138;2022-12-29T07:50:12;98245.75;;;19.74;58.89
74975;BME280;64061;50.836;19.138;2022-12-29T07:53:16;98246.00;;;19.78;58.40
74975;BME280;64061;50.836;19.138;2022-12-29T07:56:20;98236.69;;;19.79;58.84
74975;BME280;64061;50.836;19.138;2022-12-29T07:59:24;98224.63;;;19.80;59.00
74975;BME280;64061;50.836;19.138;2022-12-29T08:02:29;98238.53;;;19.83;58.66
74975;BME280;64061;50.836;19.138;2022-12-29T08:05:34;98220.50;;;19.82;58.67
74975;BME280;64061;50.836;19.138;2022-12-29T08:08:37;98217.47;;;19.84;58.71
74975;BME280;64061;50.836;19.138;2022-12-29T08:11:41;98219.88;;;19.85;58.79
74975;BME280;64061;50.836;19.138;2022-12-29T08:14:45;98224.25;;;19.86;58.49
74975;BME280;64061;50.836;19.138;2022-12-29T08:17:50;98233.50;;;19.90;57.70
74975;BME280;64061;50.836;19.138;2022-12-29T08:20:53;98220.91;;;19.89;58.41
74975;BME280;64061;50.836;19.138;2022-12-29T08:23:57;98242.53;;;19.91;58.43
74975;BME280;64061;50.836;19.138;2022-12-29T08:27:01;98242.25;;;19.92;58.20
74975;BME280;64061;50.836;19.138;2022-12-29T08:30:18;98249.34;;;19.93;58.16
74975;BME280;64061;50.836;19.138;2022-12-29T08:33:23;98240.22;;;19.98;57.98
74975;BME280;64061;50.836;19.138;2022-12-29T08:36:28;98233.94;;;19.98;58.03
74975;BME280;64061;50.836;19.138;2022-12-29T08:39:31;98238.00;;;20.00;57.96
74975;BME280;64061;50.836;19.138;2022-12-29T08:42:35;98263.19;;;20.02;58.10
74975;BME280;64061;50.836;19.138;2022-12-29T08:45:39;98254.38;;;20.05;57.99
74975;BME280;64061;50.836;19.138;2022-12-29T08:48:44;98265.03;;;20.07;58.15
74975;BME280;64061;50.836;19.138;2022-12-29T08:51:47;98261.50;;;20.06;57.60
74975;BME280;64061;50.836;19.138;2022-12-29T08:54:51;98254.91;;;20.07;57.86
74975;BME280;64061;50.836;19.138;2022-12-29T08:57:55;98276.53;;;20.09;57.21
74975;BME280;64061;50.836;19.138;2022-12-29T09:00:59;98250.44;;;20.11;57.43
74975;BME280;64061;50.836;19.138;2022-12-29T09:04:04;98261.63;;;20.15;58.66
74975;BME280;64061;50.836;19.138;2022-12-29T09:07:17;98261.94;;;20.13;58.03
74975;BME280;64061;50.836;19.138;2022-12-29T09:10:21;98244.91;;;20.16;57.86
74975;BME280;64061;50.836;19.138;2022-12-29T09:13:25;98228.19;;;20.18;57.57
74975;BME280;64061;50.836;19.138;2022-12-29T09:16:28;98254.19;;;20.20;57.62
74975;BME280;64061;50.836;19.138;2022-12-29T09:19:33;98245.38;;;20.23;57.02
74975;BME280;64061;50.836;19.138;2022-12-29T09:22:37;98237.16;;;20.23;57.21
74975;BME280;64061;50.836;19.138;2022-12-29T09:25:40;98239.56;;;20.25;57.13
74975;BME280;64061;50.836;19.138;2022-12-29T09:28:45;98243.06;;;20.31;57.58
74975;BME280;64061;50.836;19.138;2022-12-29T09:31:49;98233.69;;;20.37;58.21
74975;BME280;64061;50.836;19.138;2022-12-29T09:34:54;98224.56;;;20.41;58.11
74975;BME280;64061;50.836;19.138;2022-12-29T09:37:58;98226.72;;;20.44;58.60
74975;BME280;64061;50.836;19.138;2022-12-29T09:41:08;98237.22;;;20.56;57.97
74975;BME280;64061;50.836;19.138;2022-12-29T09:46:20;98233.06;;;20.58;58.23
74975;BME280;64061;50.836;19.138;2022-12-29T09:49:31;98238.16;;;20.65;58.55
74975;BME280;64061;50.836;19.138;2022-12-29T09:52:48;98234.44;;;20.75;58.64
74975;BME280;64061;50.836;19.138;2022-12-29T09:56:00;98240.13;;;20.78;58.88
74975;BME280;64061;50.836;19.138;2022-12-29T09:59:12;98237.81;;;20.85;58.91
74975;BME280;64061;50.836;19.138;2022-12-29T10:02:29;98241.28;;;20.91;58.94
74975;BME280;64061;50.836;19.138;2022-12-29T10:05:41;98223.41;;;20.93;58.58
74975;BME280;64061;50.836;19.138;2022-12-29T10:08:57;98236.75;;;21.00;58.65
74975;BME280;64061;50.836;19.138;2022-12-29T10:12:17;98223.44;;;21.07;58.54
74975;BME280;64061;50.836;19.138;2022-12-29T10:15:39;98211.34;;;21.08;58.34
74975;BME280;64061;50.836;19.138;2022-12-29T10:22:53;98226.69;;;21.09;57.83
74975;BME280;64061;50.836;19.138;2022-12-29T10:26:13;98203.72;;;21.05;58.60
74975;BME280;64061;50.836;19.138;2022-12-29T10:29:22;98213.28;;;21.08;58.49
74975;BME280;64061;50.836;19.138;2022-12-29T10:32:38;98201.72;;;21.11;58.08
74975;BME280;64061;50.836;19.138;2022-12-29T10:35:49;98210.75;;;21.11;57.90
74975;BME280;64061;50.836;19.138;2022-12-29T10:39:02;98195.41;;;21.10;57.68
74975;BME280;64061;50.836;19.138;2022-12-29T10:42:18;98206.78;;;21.04;58.20
74975;BME280;64061;50.836;19.138;2022-12-29T10:45:29;98201.91;;;21.01;58.14
74975;BME280;64061;50.836;19.138;2022-12-29T10:48:35;98209.63;;;20.98;58.69
74975;BME280;64061;50.836;19.138;2022-12-29T10:51:42;98197.25;;;21.01;57.91
74975;BME280;64061;50.836;19.138;2022-12-29T10:54:54;98200.28;;;20.99;59.52
74975;BME280;64061;50.836;19.138;2022-12-29T10:58:04;98197.84;;;20.98;59.72
74975;BME280;64061;50.836;19.138;2022-12-29T11:01:11;98194.59;;;20.96;59.57
74975;BME280;64061;50.836;19.138;2022-12-29T11:04:28;98187.91;;;21.02;59.76
74975;BME280;64061;50.836;19.138;2022-12-29T11:07:46;98196.81;;;20.94;59.98
74975;BME280;64061;50.836;19.138;2022-12-29T11:10:58;98181.09;;;20.99;59.22
74975;BME280;64061;50.836;19.138;2022-12-29T11:14:12;98178.66;;;20.98;59.05
74975;BME280;64061;50.836;19.138;2022-12-29T11:17:17;98192.94;;;20.95;59.04
74975;BME280;64061;50.836;19.138;2022-12-29T11:20:29;98170.50;;;21.07;59.22
74975;BME280;64061;50.836;19.138;2022-12-29T11:23:38;98171.44;;;21.02;59.29
74975;BME280;64061;50.836;19.138;2022-12-29T11:26:44;98175.59;;;20.99;58.30
74975;BME280;64061;50.836;19.138;2022-12-29T11:29:49;98185.75;;;20.99;58.91
74975;BME280;64061;50.836;19.138;2022-12-29T11:32:55;98184.03;;;21.03;59.18
74975;BME280;64061;50.836;19.138;2022-12-29T11:36:02;98162.00;;;21.08;58.93
74975;BME280;64061;50.836;19.138;2022-12-29T11:39:24;98153.06;;;21.16;57.92
74975;BME280;64061;50.836;19.138;2022-12-29T11:42:35;98164.94;;;21.12;57.87
74975;BME280;64061;50.836;19.138;2022-12-29T11:45:45;98155.59;;;21.13;57.60
74975;BME280;64061;50.836;19.138;2022-12-29T11:48:50;98168.00;;;21.10;57.32
74975;BME280;64061;50.836;19.138;2022-12-29T11:51:54;98189.13;;;21.10;57.14
74975;BME280;64061;50.836;19.138;2022-12-29T11:55:02;98178.44;;;21.08;57.46
74975;BME280;64061;50.836;19.138;2022-12-29T11:58:15;98175.69;;;21.08;56.79
74975;BME280;64061;50.836;19.138;2022-12-29T12:01:20;98177.53;;;20.99;56.16
74975;BME280;64061;50.836;19.138;2022-12-29T12:04:33;98152.41;;;20.92;54.47
74975;BME280;64061;50.836;19.138;2022-12-29T12:07:41;98174.47;;;20.87;53.59
74975;BME280;64061;50.836;19.138;2022-12-29T12:10:53;98158.03;;;20.87;52.47
74975;BME280;64061;50.836;19.138;2022-12-29T12:14:05;98155.97;;;20.79;51.37
74975;BME280;64061;50.836;19.138;2022-12-29T12:17:40;98146.44;;;20.76;50.67
74975;BME280;64061;50.836;19.138;2022-12-29T12:20:54;98148.84;;;20.78;49.78
74975;BME280;64061;50.836;19.138;2022-12-29T12:27:48;98131.19;;;20.84;49.42
74975;BME280;64061;50.836;19.138;2022-12-29T12:30:57;98151.28;;;20.79;49.42
74975;BME280;64061;50.836;19.138;2022-12-29T12:34:13;98158.63;;;20.84;49.87
74975;BME280;64061;50.836;19.138;2022-12-29T12:37:35;98145.44;;;20.86;50.95
74975;BME280;64061;50.836;19.138;2022-12-29T12:40:59;98144.63;;;20.85;52.15
74975;BME280;64061;50.836;19.138;2022-12-29T12:44:18;98151.13;;;20.89;52.97
74975;BME280;64061;50.836;19.138;2022-12-29T12:47:43;98132.63;;;20.95;53.63
74975;BME280;64061;50.836;19.138;2022-12-29T12:51:05;98160.16;;;20.90;54.95
74975;BME280;64061;50.836;19.138;2022-12-29T12:54:31;98161.06;;;20.99;55.79
74975;BME280;64061;50.836;19.138;2022-12-29T12:57:53;98140.16;;;21.03;57.60
74975;BME280;64061;50.836;19.138;2022-12-29T13:01:18;98165.75;;;21.12;58.38
74975;BME280;64061;50.836;19.138;2022-12-29T13:04:52;98176.25;;;21.24;58.82
74975;BME280;64061;50.836;19.138;2022-12-29T13:08:24;98156.31;;;21.32;58.11
74975;BME280;64061;50.836;19.138;2022-12-29T13:11:53;98168.22;;;21.41;58.17
74975;BME280;64061;50.836;19.138;2022-12-29T13:15:18;98140.88;;;21.50;57.82
74975;BME280;64061;50.836;19.138;2022-12-29T13:18:46;98155.19;;;21.60;56.72
74975;BME280;64061;50.836;19.138;2022-12-29T13:22:07;98139.94;;;21.68;55.91
74975;BME280;64061;50.836;19.138;2022-12-29T13:25:26;98142.44;;;21.78;54.82
74975;BME280;64061;50.836;19.138;2022-12-29T13:28:41;98138.28;;;21.81;54.17
74975;BME280;64061;50.836;19.138;2022-12-29T13:32:00;98119.72;;;21.86;53.17
74975;BME280;64061;50.836;19.138;2022-12-29T13:35:28;98143.53;;;21.91;52.26
74975;BME280;64061;50.836;19.138;2022-12-29T13:38:47;98152.88;;;21.90;50.98
74975;BME280;64061;50.836;19.138;2022-12-29T13:41:56;98141.91;;;21.90;50.16
74975;BME280;64061;50.836;19.138;2022-12-29T13:45:02;98162.44;;;21.92;50.18
74975;BME280;64061;50.836;19.138;2022-12-29T13:48:15;98152.47;;;21.96;50.03
74975;BME280;64061;50.836;19.138;2022-12-29T13:51:26;98143.22;;;21.92;49.76
74975;BME280;64061;50.836;19.138;2022-12-29T13:54:37;98145.81;;;21.97;49.74
74975;BME280;64061;50.836;19.138;2022-12-29T14:01:00;98146.97;;;21.96;50.40
74975;BME280;64061;50.836;19.138;2022-12-29T14:04:12;98156.94;;;21.92;50.64
74975;BME280;64061;50.836;19.138;2022-12-29T14:07:19;98156.34;;;21.95;50.42
74975;BME280;64061;50.836;19.138;2022-12-29T14:10:28;98146.38;;;21.99;50.42
74975;BME280;64061;50.836;19.138;2022-12-29T14:13:38;98157.16;;;21.96;50.06
74975;BME280;64061;50.836;19.138;2022-12-29T14:16:44;98147.59;;;21.93;50.36
74975;BME280;64061;50.836;19.138;2022-12-29T14:19:52;98149.63;;;22.01;50.35
74975;BME280;64061;50.836;19.138;2022-12-29T14:23:01;98148.00;;;22.00;50.13
74975;BME280;64061;50.836;19.138;2022-12-29T14:26:35;98155.91;;;22.02;50.29
74975;BME280;64061;50.836;19.138;2022-12-29T14:29:43;98158.97;;;22.00;50.12
74975;BME280;64061;50.836;19.138;2022-12-29T14:33:10;98149.19;;;22.08;50.05
74975;BME280;64061;50.836;19.138;2022-12-29T14:36:20;98157.34;;;21.99;50.23
74975;BME280;64061;50.836;19.138;2022-12-29T14:39:32;98167.72;;;22.02;50.49
74975;BME280;64061;50.836;19.138;2022-12-29T14:42:42;98164.97;;;22.02;50.53
74975;BME280;64061;50.836;19.138;2022-12-29T14:45:54;98155.81;;;22.07;50.34
74975;BME280;64061;50.836;19.138;2022-12-29T14:49:02;98153.69;;;22.04;50.50
74975;BME280;64061;50.836;19.138;2022-12-29T14:52:08;98150.50;;;22.11;50.46
74975;BME280;64061;50.836;19.138;2022-12-29T14:55:38;98169.88;;;22.28;49.97
74975;BME280;64061;50.836;19.138;2022-12-29T14:58:49;98154.34;;;22.23;49.97
74975;BME280;64061;50.836;19.138;2022-12-29T15:01:56;98151.38;;;22.20;50.21
74975;BME280;64061;50.836;19.138;2022-12-29T15:05:00;98156.56;;;22.21;50.30
74975;BME280;64061;50.836;19.138;2022-12-29T15:08:06;98156.88;;;22.20;50.39
74975;BME280;64061;50.836;19.138;2022-12-29T15:11:14;98159.63;;;22.20;50.56
74975;BME280;64061;50.836;19.138;2022-12-29T15:14:28;98158.63;;;22.16;50.51
74975;BME280;64061;50.836;19.138;2022-12-29T15:17:34;98162.72;;;22.04;50.42
74975;BME280;64061;50.836;19.138;2022-12-29T15:20:41;98169.03;;;22.05;50.32
74975;BME280;64061;50.836;19.138;2022-12-29T15:23:45;98152.88;;;22.03;49.80
74975;BME280;64061;50.836;19.138;2022-12-29T15:26:53;98164.06;;;22.07;49.82
74975;BME280;64061;50.836;19.138;2022-12-29T15:29:59;98157.25;;;22.04;49.89
74975;BME280;64061;50.836;19.138;2022-12-29T15:33:17;98157.88;;;22.24;49.37
74975;BME280;64061;50.836;19.138;2022-12-29T15:36:22;98160.88;;;22.36;49.83
74975;BME280;64061;50.836;19.138;2022-12-29T15:39:29;98156.50;;;22.57;49.63
74975;BME280;64061;50.836;19.138;2022-12-29T15:43:21;98174.19;;;22.87;48.95
74975;BME280;64061;50.836;19.138;2022-12-29T15:47:04;98155.66;;;22.79;49.45
74975;BME280;64061;50.836;19.138;2022-12-29T15:50:21;98164.38;;;23.03;48.39
74975;BME280;64061;50.836;19.138;2022-12-29T15:53:31;98176.06;;;23.09;48.64
74975;BME280;64061;50.836;19.138;2022-12-29T15:56:36;98175.25;;;23.17;48.66
74975;BME280;64061;50.836;19.138;2022-12-29T15:59:46;98170.97;;;23.33;47.96
74975;BME280;64061;50.836;19.138;2022-12-29T16:02:50;98176.97;;;23.35;47.95
74975;BME280;64061;50.836;19.138;2022-12-29T16:06:08;98167.66;;;23.54;47.21
74975;BME280;64061;50.836;19.138;2022-12-29T16:09:15;98160.84;;;23.51;47.30
74975;BME280;64061;50.836;19.138;2022-12-29T16:12:23;98171.38;;;23.58;47.02
74975;BME280;64061;50.836;19.138;2022-12-29T16:15:30;98162.97;;;23.54;47.27
74975;BME280;64061;50.836;19.138;2022-12-29T16:18:36;98160.97;;;23.46;47.48
74975;BME280;64061;50.836;19.138;2022-12-29T16:21:41;98169.69;;;23.39;47.98
74975;BME280;64061;50.836;19.138;2022-12-29T16:24:46;98174.06;;;23.40;47.74
74975;BME280;64061;50.836;19.138;2022-12-29T16:27:50;98160.97;;;23.46;47.34
74975;BME280;64061;50.836;19.138;2022-12-29T16:31:02;98167.50;;;23.59;47.40
74975;BME280;64061;50.836;19.138;2022-12-29T16:34:11;98154.09;;;23.66;47.14
74975;BME280;64061;50.836;19.138;2022-12-29T16:37:28;98162.53;;;23.78;46.57
74975;BME280;64061;50.836;19.138;2022-12-29T16:40:38;98155.41;;;23.77;46.69
74975;BME280;64061;50.836;19.138;2022-12-29T16:44:10;98162.22;;;23.88;46.55
74975;BME280;64061;50.836;19.138;2022-12-29T16:47:19;98173.22;;;23.79;46.90
74975;BME280;64061;50.836;19.138;2022-12-29T16:50:26;98177.59;;;23.80;47.06
74975;BME280;64061;50.836;19.138;2022-12-29T16:53:33;98185.19;;;23.84;46.91
74975;BME280;64061;50.836;19.138;2022-12-29T16:56:43;98163.84;;;23.89;46.77
74975;BME280;64061;50.836;19.138;2022-12-29T16:59:50;98183.59;;;23.91;46.46